Main page
METAR-TAF:

METAR-TAF

Airports :

Paro Airport

Thimphu, India

latitude: 27-24-32N, longitude: 89-25-14E, elevation: 2235 m

Current weather observation

The report was made 8 hours and 51 minutes ago, at 11:00 UTC
Wind 11 kt from the South/Southeast, varying between East and Southwest
Temperature 14°C
Humidity 38%
Pressure 1018 hPa
Visibility 10 km or more
Clear sky

METAR: VQPR 011100Z 16011KT 100V220 9999 SKC 14/00 Q1018

Time: 01:51 (19:51 UTC)


TAF: missing

Weather observations and forecasts of more than 4000 airports (METAR and TAF reports).

The available stations are represented by yellow and red dots on the map.

Hover mouse over dot to see the name of the station.

Then click to see weather observations and forecasts.

To change the map : click on the green buttons with a black cross to zoom in, on the green button with a dash to zoom out, or on the green arrows for adjacent maps.


METAR-TAF: